Maryland METAR Reports


Distance/Direction noted is from Ellicott City, MD as the crow flies

KCBE - Cumberland - 118 miles WNW
Updated: Wed, 09/24/2014 3:32 PM
NOT Current
Clear
Clear
 Wind from E
Wind: E 6 mph
Temperature: 70°F
Dew Point: 45°F
Humidity: 40%
Barometer: 30.49 inHg
Clouds: Clear
Visibility: 10 miles
2014/09/24 19:32 KCBE 241932Z AUTO 08005KT 10SM CLR 21/07 A3049 RMK AO1
KHGR - Hagerstown - 57 miles NW
Updated: Tue, 09/30/2014 7:45 AM
Mist, Few clouds
Mist, Few clouds
 Wind from calm
Wind: Calm
Temperature: 57°F
Dew Point: 55°F
Humidity: 94%
Barometer: 29.93 inHg
Summary: Mist
Clouds: Few Clouds
Visibility: 1 1/4 miles
Cloud Details: Few Clouds 500 ft
2014/09/30 11:45 KHGR 301145Z 00000KT 1 1/4SM BR FEW005 14/13 A2993 RMK AO2 T013901
 
KFDK - Frederick - 34 miles NW
Updated: Tue, 09/30/2014 7:45 AM
Mist, Overcast
Mist, Overcast
 Wind from calm
Wind: Calm
Temperature: 66°F
Dew Point: 64°F
Humidity: 94%
Summary: Mist
Clouds: Overcast
Visibility: 4 miles
Cloud Details: Overcast 600 ft
2014/09/30 11:45 KFDK 301145Z 00000KT 4SM BR OVC006 19/18 A29
KGAI - Gaithersburg - 26 miles SW
Updated: Tue, 09/30/2014 7:35 AM
Overcast
Overcast
 Wind from calm
Wind: Calm
Temperature: 63°F
Dew Point: 61°F
Humidity: 94%
Barometer: 29.97 inHg
Clouds: Overcast
Visibility: 10 miles
Cloud Details: Overcast 900 ft
2014/09/30 11:35 KGAI 301135Z 00000KT 10SM OVC009 17/16 A2997 RMK AO1
 
KBWI - BWI Airport - 15 miles SE
Updated: Tue, 09/30/2014 6:54 AM
Mist, Overcast
Mist, Overcast
 Wind from SSE
Wind: SSE 3 mph
Temperature: 64°F
Dew Point: 63°F
Humidity: 94%
Barometer: 29.92 inHg
Summary: Mist
Clouds: Overcast
Visibility: 5 miles
Cloud Details: Mostly Cloudy 1100 ft
Overcast 12000 ft
2014/09/30 10:54 KBWI 301054Z 15003KT 5SM BR BKN011 OVC120 18/17 A2992 RMK AO2 SLP130 T01780167
KNAK - Annapolis - 32 miles SSE
Updated: Tue, 09/30/2014 7:26 AM
Mostly Cloudy
Mostly Cloudy
 Wind from S
Wind: S 6 mph
Temperature: 64°F
Dew Point: 63°F
Humidity: 94%
Barometer: 29.93 inHg
Clouds: Mostly Cloudy
Visibility: 8 miles
Cloud Details: Mostly Cloudy 1100 ft
2014/09/30 11:26 KNAK 301126Z AUTO 17005KT 8SM BKN011 18/17 A2993 RMK AO2 T01830167 PNO $
 
KESN - Easton - 63 miles SE
Updated: Tue, 09/30/2014 6:50 AM

 Wind from calm
Wind: Calm
Temperature: 61°F
Dew Point: 61°F
Humidity: 100%
Barometer: 29.97 inHg
Visibility: 5 miles
2014/09/30 10:50 KESN 301050Z 00000KT 5SM 16/16 A2997
KSBY - Salisbury - 112 miles SE
Updated: Tue, 09/30/2014 6:54 AM
Overcast
Overcast
 Wind from calm
Wind: Calm
Temperature: 64°F
Dew Point: 61°F
Humidity: 88%
Barometer: 29.93 inHg
Clouds: Overcast
Visibility: 9 miles
Cloud Details: Few Clouds 3900 ft
Overcast 10000 ft
2014/09/30 10:54 KSBY 301054Z 00000KT 9SM FEW039 OVC100 18/16 A2993 RMK AO2 SLP137 T01830161